CGF2 weather

Edmonton / Lechelt Field
Edmonton, Alberta, Canada

Public forecast

Using degrees Celsius for public forecast. Weather courtesy of forecast.io.

METAR (pilot weather report)

Closest report is Edmonton (CFB Namao) Heliport, 18.3 nm (33.9 km) WNW. Retrieved 2019/09/15 04:00 UTC (46 minutes ago):

CYED 150400Z AUTO 08003KT 9SM FEW086 10/08 A2966 RMK SLP056

TAF (pilot weather forecast)

Forecast is more than 12 hours old.

Closest forecast is Edmonton (CFB Namao) Heliport, 18.3 nm (33.9 km) WNW. Retrieved 2019/09/13 00:33 UTC (2 days ago):

TAF TAF CYED 132330Z 1400/1412 28008KT P6SM FEW050 BECMG 1400/1402 VRB03KT FM141000 VRB03KT P6SM BKN100 RMK FCST BASED ON AUTO OBS. NXT FCST BY 140600Z